Time;durP1;ratioP1;P1;durP2;ratioP2;P2;SDS_P1;SDS_P2;PMS_P1;PMS_P2;Temp;Humidity;BMP_temperature;BMP_pressure;BME280_temperature;BME280_humidity;BME280_pressure;Samples;Min_cycle;Max_cycle;Signal;HPM_P1;HPM_P2
2022/07/13 00:00:14;;;;;;;1.30;1.15;;;14.90;95.40;;;;;;5076756;28;20043;-85
2022/07/13 00:02:40;;;;;;;1.10;1.00;;;14.90;96.00;;;;;;5037270;28;20116;-85
2022/07/13 00:05:06;;;;;;;0.90;0.90;;;14.80;96.10;;;;;;5048025;28;20622;-84
2022/07/13 00:07:36;;;;;;;1.52;1.02;;;14.80;96.00;;;;;;5019971;28;20072;-86
2022/07/13 00:10:02;;;;;;;1.00;0.90;;;14.80;96.20;;;;;;5035794;28;20039;-84
2022/07/13 00:12:28;;;;;;;1.20;1.10;;;14.70;96.90;;;;;;5054120;28;20030;-83
2022/07/13 00:14:54;;;;;;;1.00;1.00;;;14.70;97.50;;;;;;5051968;28;20075;-85
2022/07/13 00:17:20;;;;;;;1.45;1.00;;;14.60;97.90;;;;;;5021204;28;20036;-84
2022/07/13 00:19:46;;;;;;;0.93;0.93;;;14.60;97.60;;;;;;5005269;28;20029;-85
2022/07/13 00:22:11;;;;;;;1.80;1.10;;;14.60;97.80;;;;;;5038752;28;20036;-83
2022/07/13 00:24:37;;;;;;;1.30;1.20;;;14.60;97.80;;;;;;5007279;28;20068;-84
2022/07/13 00:27:03;;;;;;;1.30;1.20;;;14.50;98.60;;;;;;5039222;28;20032;-84
2022/07/13 00:29:29;;;;;;;2.60;1.20;;;14.50;98.40;;;;;;5071981;28;20047;-84
2022/07/13 00:31:55;;;;;;;1.98;1.20;;;14.40;98.70;;;;;;5040403;28;20028;-84
2022/07/13 00:34:20;;;;;;;1.08;1.00;;;14.40;99.20;;;;;;5019601;28;20040;-85
2022/07/13 00:36:46;;;;;;;2.75;1.20;;;14.40;99.40;;;;;;5039352;28;20056;-85
2022/07/13 00:39:12;;;;;;;1.20;1.10;;;14.30;99.60;;;;;;5054977;28;20302;-85
2022/07/13 00:41:48;;;;;;;1.33;1.10;;;14.20;99.40;;;;;;5027801;28;20036;-83
2022/07/13 00:44:14;;;;;;;1.10;0.98;;;14.20;99.90;;;;;;5035886;28;20032;-84
2022/07/13 00:46:43;;;;;;;1.20;1.10;;;14.20;99.90;;;;;;5035439;28;20029;-84
2022/07/13 00:49:10;;;;;;;2.90;1.30;;;14.10;99.90;;;;;;5040470;28;20032;-85
2022/07/13 00:51:38;;;;;;;1.17;1.17;;;14.10;99.90;;;;;;5053517;28;20056;-84
2022/07/13 00:54:05;;;;;;;1.42;1.20;;;14.10;99.90;;;;;;5055379;28;20031;-84
2022/07/13 00:56:32;;;;;;;1.00;1.00;;;14.10;99.90;;;;;;5022302;28;20047;-85
2022/07/13 00:59:01;;;;;;;1.58;1.13;;;14.10;99.90;;;;;;5039521;28;20036;-86
2022/07/13 01:01:27;;;;;;;1.20;1.10;;;14.20;99.90;;;;;;5058091;28;20116;-86
2022/07/13 01:03:53;;;;;;;1.33;1.23;;;14.10;99.90;;;;;;5036528;28;20064;-85
2022/07/13 01:06:19;;;;;;;3.28;1.00;;;14.10;99.90;;;;;;5033957;28;20070;-84
2022/07/13 01:08:46;;;;;;;1.17;1.08;;;14.10;99.90;;;;;;5037969;28;20032;-84
2022/07/13 01:11:12;;;;;;;1.40;1.17;;;14.10;99.90;;;;;;5040330;28;20405;-86
2022/07/13 01:13:40;;;;;;;1.00;1.00;;;14.00;99.90;;;;;;5036825;28;20028;-84
2022/07/13 01:16:09;;;;;;;1.27;1.17;;;14.00;99.90;;;;;;5040768;28;20111;-84
2022/07/13 01:18:35;;;;;;;0.90;0.90;;;14.00;99.90;;;;;;5054563;28;20107;-83
2022/07/13 01:21:03;;;;;;;0.93;0.93;;;13.90;99.90;;;;;;5054452;28;20037;-84
2022/07/13 01:23:30;;;;;;;2.53;0.90;;;13.90;99.90;;;;;;5061599;28;20029;-84
2022/07/13 01:25:56;;;;;;;2.88;1.33;;;13.90;99.90;;;;;;5048120;28;20025;-86
2022/07/13 01:28:25;;;;;;;1.40;1.30;;;13.80;99.90;;;;;;5018093;28;20029;-85
2022/07/13 01:30:51;;;;;;;1.30;1.20;;;13.80;99.90;;;;;;5037645;28;20025;-84
2022/07/13 01:33:17;;;;;;;1.55;1.45;;;13.80;99.90;;;;;;5054554;28;20490;-83
2022/07/13 01:35:42;;;;;;;1.30;1.20;;;13.80;99.90;;;;;;5038162;28;20107;-86
2022/07/13 01:38:09;;;;;;;1.10;1.10;;;13.80;99.90;;;;;;5037302;28;20055;-85
2022/07/13 01:40:35;;;;;;;3.22;1.38;;;13.80;99.90;;;;;;5054400;28;20135;-85
2022/07/13 01:43:00;;;;;;;1.52;1.27;;;13.80;99.90;;;;;;5037766;28;20473;-84
2022/07/13 01:45:26;;;;;;;1.50;1.40;;;13.80;99.90;;;;;;5020299;28;20048;-86
2022/07/13 01:47:54;;;;;;;1.33;1.02;;;13.70;99.90;;;;;;5021760;28;20024;-85
2022/07/13 01:50:22;;;;;;;1.50;1.40;;;13.70;99.90;;;;;;5037265;28;20388;-84
2022/07/13 01:52:48;;;;;;;1.50;1.20;;;13.70;99.90;;;;;;5001951;28;20067;-84
2022/07/13 01:55:14;;;;;;;1.10;1.10;;;13.70;99.90;;;;;;5047718;28;20025;-84
2022/07/13 01:57:43;;;;;;;1.77;1.20;;;13.70;99.90;;;;;;5054521;28;20032;-83
2022/07/13 02:00:16;;;;;;;1.50;1.40;;;13.70;99.90;;;;;;5050016;28;20512;-85
2022/07/13 02:02:44;;;;;;;1.42;1.33;;;13.70;99.90;;;;;;5035846;28;20040;-85
2022/07/13 02:05:13;;;;;;;2.70;1.33;;;13.70;99.90;;;;;;5037664;28;20125;-84
2022/07/13 02:07:40;;;;;;;1.67;1.40;;;13.70;99.90;;;;;;5021325;28;20036;-86
2022/07/13 02:10:08;;;;;;;1.75;1.30;;;13.80;99.90;;;;;;5036946;28;20040;-84
2022/07/13 02:12:35;;;;;;;1.30;1.20;;;13.80;99.90;;;;;;5036864;28;20407;-83
2022/07/13 02:15:01;;;;;;;1.05;1.05;;;13.80;99.90;;;;;;5037048;28;20033;-84
2022/07/13 02:17:27;;;;;;;1.08;0.98;;;13.80;99.90;;;;;;5040385;28;20024;-86
2022/07/13 02:19:53;;;;;;;1.50;1.40;;;13.80;99.90;;;;;;5040553;28;20029;-83
2022/07/13 02:22:20;;;;;;;1.15;1.10;;;13.90;99.90;;;;;;5013515;28;20037;-85
2022/07/13 02:24:46;;;;;;;1.40;1.30;;;13.90;99.90;;;;;;5021497;28;20120;-85
2022/07/13 02:27:12;;;;;;;1.08;1.08;;;13.90;99.90;;;;;;5032858;28;20476;-86
2022/07/13 02:29:38;;;;;;;1.50;1.40;;;13.90;99.90;;;;;;5019070;28;20072;-85
2022/07/13 02:32:06;;;;;;;1.48;1.20;;;13.90;99.90;;;;;;5028397;28;20106;-86
2022/07/13 02:34:32;;;;;;;1.45;1.35;;;13.90;99.90;;;;;;5020422;28;20029;-85
2022/07/13 02:36:58;;;;;;;1.55;1.45;;;13.90;99.90;;;;;;5035812;28;20035;-84
2022/07/13 02:39:24;;;;;;;3.72;1.45;;;14.00;99.90;;;;;;5034988;28;20560;-84
2022/07/13 02:41:50;;;;;;;1.65;1.13;;;14.00;99.90;;;;;;5040090;28;20033;-84
2022/07/13 02:44:17;;;;;;;1.40;1.30;;;13.90;99.90;;;;;;5051007;28;20033;-84
2022/07/13 02:46:43;;;;;;;1.50;1.40;;;13.90;99.90;;;;;;5050378;28;20033;-84
2022/07/13 02:49:10;;;;;;;1.33;1.30;;;14.00;99.90;;;;;;5035956;28;20040;-83
2022/07/13 02:51:36;;;;;;;3.10;1.38;;;14.00;99.90;;;;;;5050027;28;20154;-84
2022/07/13 02:54:03;;;;;;;1.45;1.20;;;14.00;99.90;;;;;;5015455;28;20032;-83
2022/07/13 02:56:30;;;;;;;1.45;1.35;;;14.10;99.90;;;;;;5015363;28;20028;-84
2022/07/13 02:58:56;;;;;;;1.55;1.45;;;14.10;99.90;;;;;;5035550;28;20029;-84
2022/07/13 03:01:22;;;;;;;1.35;1.25;;;14.10;99.90;;;;;;5039912;28;20495;-84
2022/07/13 03:03:48;;;;;;;1.33;1.00;;;14.10;99.90;;;;;;5053015;28;20032;-83
2022/07/13 03:06:14;;;;;;;0.95;0.95;;;14.10;99.90;;;;;;5045037;28;20024;-84
2022/07/13 03:08:40;;;;;;;1.00;1.00;;;14.20;99.90;;;;;;5038604;28;20025;-84
2022/07/13 03:11:07;;;;;;;1.20;1.00;;;14.20;99.90;;;;;;5036468;28;20557;-85
2022/07/13 03:13:33;;;;;;;1.00;1.00;;;14.20;99.90;;;;;;5020019;28;20036;-85
2022/07/13 03:15:58;;;;;;;1.58;0.98;;;14.20;99.90;;;;;;5020103;28;20515;-83
2022/07/13 03:18:24;;;;;;;1.35;1.00;;;14.30;99.90;;;;;;5016563;28;20029;-84
2022/07/13 03:20:50;;;;;;;1.20;1.10;;;14.20;99.90;;;;;;5036256;28;20056;-83
2022/07/13 03:23:29;;;;;;;0.93;0.93;;;14.20;99.90;;;;;;5031003;28;20072;-84
2022/07/13 03:26:05;;;;;;;1.02;0.93;;;14.20;99.90;;;;;;5050838;28;20487;-85
2022/07/13 03:28:32;;;;;;;1.75;1.17;;;14.10;99.90;;;;;;5048838;28;20028;-84
2022/07/13 03:30:58;;;;;;;1.30;1.20;;;14.10;99.90;;;;;;5042752;28;20035;-84
2022/07/13 03:33:24;;;;;;;1.42;1.23;;;14.10;99.90;;;;;;5036113;28;20077;-84
2022/07/13 03:35:50;;;;;;;1.50;1.20;;;14.10;99.90;;;;;;5002802;28;20372;-84
2022/07/13 03:38:17;;;;;;;1.30;1.20;;;14.10;99.90;;;;;;5035828;28;20033;-84
2022/07/13 03:40:43;;;;;;;1.50;1.40;;;14.20;99.90;;;;;;5021645;28;20037;-84
2022/07/13 03:43:09;;;;;;;1.30;1.20;;;14.20;99.90;;;;;;5003971;28;20094;-85
2022/07/13 03:45:35;;;;;;;1.38;1.27;;;14.20;99.90;;;;;;5004752;28;20040;-84
2022/07/13 03:48:01;;;;;;;1.30;1.20;;;14.20;99.90;;;;;;5019805;28;20040;-85
2022/07/13 03:50:27;;;;;;;1.55;1.45;;;14.30;99.90;;;;;;5022477;28;20033;-84
2022/07/13 03:52:52;;;;;;;1.33;1.23;;;14.20;99.90;;;;;;5056015;28;20032;-84
2022/07/13 03:55:18;;;;;;;1.42;1.25;;;14.30;99.90;;;;;;5038794;28;20033;-85
2022/07/13 03:57:45;;;;;;;1.42;1.33;;;14.30;99.90;;;;;;5023117;28;20039;-85
2022/07/13 04:00:13;;;;;;;1.58;1.48;;;14.30;99.90;;;;;;5006589;28;20032;-85
2022/07/13 04:02:43;;;;;;;1.55;1.40;;;14.30;99.90;;;;;;5056770;28;20051;-87
2022/07/13 04:05:13;;;;;;;1.75;1.65;;;14.30;99.90;;;;;;5023398;28;20042;-87
2022/07/13 04:07:39;;;;;;;1.63;1.52;;;14.30;99.90;;;;;;5039323;28;20032;-86
2022/07/13 04:10:05;;;;;;;1.55;1.45;;;14.30;99.90;;;;;;5036357;28;20025;-86
2022/07/13 04:12:31;;;;;;;1.50;1.38;;;14.30;99.90;;;;;;5034629;28;20115;-86
2022/07/13 04:14:57;;;;;;;1.63;1.42;;;14.40;99.90;;;;;;5019230;28;20085;-87
2022/07/13 04:17:24;;;;;;;2.58;1.45;;;14.40;99.90;;;;;;5040733;28;20496;-85
2022/07/13 04:19:49;;;;;;;1.45;1.35;;;14.50;99.90;;;;;;5057891;28;20035;-87
2022/07/13 04:22:15;;;;;;;2.25;1.30;;;14.60;99.90;;;;;;5053631;28;20071;-86
2022/07/13 04:24:42;;;;;;;1.92;1.30;;;14.70;99.90;;;;;;5035550;28;20116;-85
2022/07/13 04:27:09;;;;;;;1.60;1.50;;;14.80;99.90;;;;;;5038381;28;20090;-87
2022/07/13 04:29:35;;;;;;;1.40;1.30;;;14.80;99.90;;;;;;5004097;28;20032;-87
2022/07/13 04:32:01;;;;;;;1.50;1.33;;;14.90;99.90;;;;;;5038407;28;20041;-86
2022/07/13 04:34:27;;;;;;;1.70;1.20;;;15.00;99.90;;;;;;5018760;28;20025;-86
2022/07/13 04:36:55;;;;;;;1.45;1.35;;;15.10;99.90;;;;;;5049792;28;20118;-87
2022/07/13 04:39:21;;;;;;;1.65;1.48;;;15.10;99.90;;;;;;5038050;28;20040;-87
2022/07/13 04:41:47;;;;;;;3.08;1.30;;;15.20;99.90;;;;;;5044087;28;20078;-87
2022/07/13 04:44:13;;;;;;;2.75;1.60;;;15.30;99.90;;;;;;5002069;28;20033;-87
2022/07/13 04:46:39;;;;;;;3.63;1.63;;;15.30;99.90;;;;;;5036814;28;20051;-87
2022/07/13 04:49:05;;;;;;;1.60;1.50;;;15.40;99.90;;;;;;5021227;28;20077;-86
2022/07/13 04:51:35;;;;;;;1.50;1.40;;;15.50;99.90;;;;;;5038761;28;20478;-86
2022/07/13 04:54:02;;;;;;;2.33;1.58;;;15.50;99.90;;;;;;5054418;28;20426;-86
2022/07/13 04:56:28;;;;;;;2.08;1.92;;;15.50;99.90;;;;;;5037606;28;20038;-86
2022/07/13 04:58:54;;;;;;;47.22;33.55;;;15.60;99.90;;;;;;5021321;28;20041;-86
2022/07/13 05:01:21;;;;;;;77.82;53.25;;;15.70;99.90;;;;;;5050977;28;20079;-86
2022/07/13 05:03:47;;;;;;;76.63;52.47;;;15.70;99.90;;;;;;5050882;28;20029;-86
2022/07/13 05:06:14;;;;;;;46.97;30.88;;;15.80;99.90;;;;;;5009737;28;20048;-86
2022/07/13 05:08:40;;;;;;;80.32;44.80;;;15.90;99.90;;;;;;5036994;28;20063;-86
2022/07/13 05:11:08;;;;;;;70.38;39.17;;;15.90;99.90;;;;;;5037587;28;20032;-86
2022/07/13 05:13:34;;;;;;;100.55;49.40;;;16.00;99.90;;;;;;5037852;28;20029;-87
2022/07/13 05:16:00;;;;;;;51.47;27.30;;;16.10;99.90;;;;;;5058579;28;20029;-86
2022/07/13 05:18:26;;;;;;;25.08;11.85;;;16.10;99.90;;;;;;5017321;28;20033;-86
2022/07/13 05:20:54;;;;;;;25.45;12.35;;;16.20;99.90;;;;;;5008770;28;20032;-86
2022/07/13 05:23:21;;;;;;;10.75;6.10;;;16.30;99.90;;;;;;5037155;28;20517;-86
2022/07/13 05:25:46;;;;;;;13.85;6.80;;;16.30;99.90;;;;;;5034781;28;20033;-86
2022/07/13 05:28:12;;;;;;;14.30;8.32;;;16.40;99.90;;;;;;5038598;28;20108;-87
2022/07/13 05:30:38;;;;;;;19.95;11.65;;;16.50;99.90;;;;;;5048139;28;20037;-86
2022/07/13 05:33:05;;;;;;;153.32;53.83;;;16.50;99.90;;;;;;5002304;28;20033;-86
2022/07/13 05:35:31;;;;;;;70.82;24.48;;;16.50;99.90;;;;;;5021001;28;20489;-86
2022/07/13 05:37:57;;;;;;;30.50;14.57;;;16.50;99.90;;;;;;5037503;28;20025;-86
2022/07/13 05:40:23;;;;;;;64.60;37.78;;;16.60;99.90;;;;;;5019895;28;20044;-87
2022/07/13 05:42:49;;;;;;;3.08;2.35;;;16.70;99.90;;;;;;5037144;28;20239;-86
2022/07/13 05:45:15;;;;;;;2.40;2.20;;;16.80;99.90;;;;;;5038115;28;20029;-86
2022/07/13 05:47:45;;;;;;;2.85;2.47;;;16.90;99.90;;;;;;5043302;28;20557;-86
2022/07/13 05:50:13;;;;;;;6.43;4.43;;;17.20;99.90;;;;;;5034196;28;20372;-86
2022/07/13 05:52:41;;;;;;;3.15;2.30;;;17.30;99.90;;;;;;5061821;28;20035;-86
2022/07/13 05:55:09;;;;;;;11.75;6.70;;;17.60;99.90;;;;;;5054242;28;20507;-89
2022/07/13 05:57:35;;;;;;;8.15;6.00;;;18.20;99.90;;;;;;5053069;28;20029;-86
2022/07/13 06:00:01;;;;;;;12.20;7.78;;;18.90;99.90;;;;;;5016228;28;20032;-87
2022/07/13 06:02:39;;;;;;;9.98;7.80;;;19.40;99.90;;;;;;5026714;28;20510;-87
2022/07/13 06:05:05;;;;;;;6.45;4.80;;;20.00;99.90;;;;;;5037088;28;20040;-87
2022/07/13 06:07:33;;;;;;;10.75;8.25;;;20.50;99.90;;;;;;5036741;28;20043;-86
2022/07/13 06:10:01;;;;;;;8.57;5.32;;;20.90;99.90;;;;;;5042593;28;20448;-86
2022/07/13 06:12:28;;;;;;;3.53;3.22;;;21.30;99.90;;;;;;5047358;28;20119;-85
2022/07/13 06:14:54;;;;;;;3.40;2.80;;;21.40;99.90;;;;;;5036811;28;20025;-87
2022/07/13 06:17:21;;;;;;;3.97;2.97;;;21.50;99.30;;;;;;5052505;28;20029;-87
2022/07/13 06:19:47;;;;;;;1.83;1.73;;;21.60;98.90;;;;;;5032741;28;20021;-86
2022/07/13 06:22:12;;;;;;;1.40;1.30;;;21.80;98.70;;;;;;5050141;28;20056;-87
2022/07/13 06:24:38;;;;;;;1.38;1.27;;;22.00;96.70;;;;;;5049991;28;20548;-87
2022/07/13 06:27:04;;;;;;;1.30;1.20;;;21.90;94.70;;;;;;5043899;28;20064;-88
2022/07/13 06:29:30;;;;;;;1.85;1.38;;;21.80;95.90;;;;;;5019806;28;20082;-88
2022/07/13 06:31:56;;;;;;;1.60;1.50;;;21.70;94.50;;;;;;5049356;28;20033;-86
2022/07/13 06:34:22;;;;;;;3.08;2.15;;;21.50;96.10;;;;;;5034047;28;20055;-86
2022/07/13 06:36:47;;;;;;;1.50;1.33;;;21.40;98.20;;;;;;5031781;28;20039;-87
2022/07/13 06:39:13;;;;;;;2.70;1.90;;;21.30;99.30;;;;;;5023924;28;20124;-87
2022/07/13 06:41:39;;;;;;;1.63;1.52;;;21.20;97.70;;;;;;5048808;28;20066;-87
2022/07/13 06:44:06;;;;;;;2.28;1.33;;;21.10;98.20;;;;;;5027446;28;20479;-88
2022/07/13 06:46:31;;;;;;;2.65;1.55;;;21.00;99.90;;;;;;5068074;28;20079;-87
2022/07/13 06:48:57;;;;;;;1.30;1.20;;;21.00;96.90;;;;;;5041707;28;20433;-87
2022/07/13 06:51:23;;;;;;;3.55;1.30;;;20.80;96.90;;;;;;5040898;28;20032;-87
2022/07/13 06:53:49;;;;;;;2.72;1.55;;;20.80;97.20;;;;;;5035873;28;20029;-88
2022/07/13 06:56:15;;;;;;;1.65;1.55;;;20.70;98.90;;;;;;5058890;28;20044;-87
2022/07/13 06:58:41;;;;;;;1.30;1.20;;;20.80;99.40;;;;;;5043053;28;20033;-87
2022/07/13 07:01:07;;;;;;;1.35;1.25;;;20.80;99.90;;;;;;5036082;28;20052;-87
2022/07/13 07:03:33;;;;;;;1.55;1.10;;;21.00;99.90;;;;;;5043063;28;20086;-86
2022/07/13 07:05:58;;;;;;;3.00;1.42;;;21.10;99.90;;;;;;5015968;28;20127;-87
2022/07/13 07:08:24;;;;;;;1.05;1.05;;;21.10;99.90;;;;;;5049729;28;20487;-87
2022/07/13 07:10:50;;;;;;;0.95;0.95;;;21.10;99.90;;;;;;5036162;28;20055;-88
2022/07/13 07:13:16;;;;;;;1.30;1.10;;;21.20;99.90;;;;;;5042711;28;20487;-88
2022/07/13 07:15:42;;;;;;;1.27;1.10;;;21.30;99.90;;;;;;5036848;28;20111;-86
2022/07/13 07:18:08;;;;;;;2.17;1.23;;;21.50;99.10;;;;;;5048927;28;20583;-88
2022/07/13 07:20:33;;;;;;;6.50;4.35;;;21.70;99.50;;;;;;5056029;28;20048;-87
2022/07/13 07:23:00;;;;;;;2.05;1.80;;;21.90;99.40;;;;;;5022875;28;20094;-87
2022/07/13 07:25:25;;;;;;;0.80;0.80;;;22.10;99.70;;;;;;5039694;28;20048;-86
2022/07/13 07:27:51;;;;;;;1.13;1.02;;;22.20;95.70;;;;;;5056611;28;20037;-86
2022/07/13 07:30:17;;;;;;;0.90;0.88;;;22.40;95.10;;;;;;5039480;28;20417;-87
2022/07/13 07:32:44;;;;;;;1.10;1.10;;;22.60;95.10;;;;;;5055663;28;20033;-86
2022/07/13 07:35:10;;;;;;;0.82;0.82;;;22.80;96.40;;;;;;5055678;28;20036;-86
2022/07/13 07:37:39;;;;;;;1.08;0.98;;;23.20;96.10;;;;;;5039033;28;20029;-87
2022/07/13 07:40:06;;;;;;;0.80;0.80;;;23.60;94.10;;;;;;5052106;28;20133;-88
2022/07/13 07:42:32;;;;;;;0.90;0.90;;;24.10;93.30;;;;;;5033969;28;20043;-88
2022/07/13 07:44:58;;;;;;;1.40;1.30;;;24.50;91.70;;;;;;5055645;28;20036;-89
2022/07/13 07:47:25;;;;;;;1.27;0.90;;;24.70;90.00;;;;;;5045223;28;20040;-87
2022/07/13 07:49:52;;;;;;;1.05;1.00;;;25.00;88.30;;;;;;5040612;28;20219;-88
2022/07/13 07:52:19;;;;;;;1.08;0.90;;;25.10;88.30;;;;;;5036757;28;20056;-88
2022/07/13 07:54:46;;;;;;;0.65;0.63;;;25.40;88.80;;;;;;5055411;28;20029;-88
2022/07/13 07:57:12;;;;;;;3.13;0.82;;;25.70;83.70;;;;;;5039460;28;21616;-87
2022/07/13 07:59:39;;;;;;;1.70;0.80;;;26.10;81.10;;;;;;5054381;28;20024;-88
2022/07/13 08:02:05;;;;;;;0.68;0.68;;;26.30;79.90;;;;;;5038242;28;20146;-89
2022/07/13 08:04:31;;;;;;;0.63;0.63;;;26.40;77.70;;;;;;5026264;28;20603;-88
2022/07/13 08:06:57;;;;;;;0.93;0.80;;;26.30;77.80;;;;;;5054842;28;20111;-87
2022/07/13 08:09:23;;;;;;;0.80;0.80;;;26.20;77.80;;;;;;5038401;28;20036;-88
2022/07/13 08:11:49;;;;;;;1.20;0.82;;;26.20;75.70;;;;;;5039011;28;20064;-87
2022/07/13 08:14:14;;;;;;;0.70;0.70;;;26.20;73.70;;;;;;5055511;28;20406;-88
2022/07/13 08:16:40;;;;;;;1.63;0.88;;;26.20;74.00;;;;;;5038564;28;20035;-87
2022/07/13 08:19:06;;;;;;;0.73;0.73;;;26.20;75.70;;;;;;5038391;28;20032;-88
2022/07/13 08:21:32;;;;;;;0.77;0.77;;;26.20;73.10;;;;;;5051720;28;20033;-87
2022/07/13 08:23:58;;;;;;;1.50;0.70;;;26.20;72.50;;;;;;5034404;28;20033;-88
2022/07/13 08:26:29;;;;;;;0.70;0.70;;;26.10;73.80;;;;;;5021560;28;20063;-88
2022/07/13 08:28:57;;;;;;;2.72;0.82;;;26.10;70.60;;;;;;5055141;28;20037;-88
2022/07/13 08:31:24;;;;;;;0.60;0.60;;;26.10;69.70;;;;;;5074220;28;20483;-88
2022/07/13 08:39:21;;;;;;;0.60;0.60;;;25.90;72.60;;;;;;5062502;28;20043;-88
2022/07/13 08:41:47;;;;;;;0.82;0.60;;;25.90;72.80;;;;;;5065175;28;20037;-87
2022/07/13 08:44:14;;;;;;;0.75;0.75;;;25.90;72.40;;;;;;5033155;28;20059;-87
2022/07/13 08:46:40;;;;;;;0.80;0.80;;;25.90;70.90;;;;;;5040258;28;20464;-87
2022/07/13 08:49:08;;;;;;;0.70;0.70;;;26.10;70.40;;;;;;5038598;28;20482;-88
2022/07/13 08:51:34;;;;;;;0.75;0.75;;;26.20;70.00;;;;;;5041881;28;20040;-88
2022/07/13 08:54:02;;;;;;;0.63;0.63;;;26.20;66.60;;;;;;5069747;28;20039;-87
2022/07/13 08:56:28;;;;;;;0.80;0.80;;;26.30;65.60;;;;;;5052560;28;20024;-87
2022/07/13 08:58:54;;;;;;;0.65;0.63;;;26.60;67.00;;;;;;5022394;28;20045;-88
2022/07/13 09:01:20;;;;;;;0.60;0.60;;;27.00;62.20;;;;;;5070261;28;20509;-87
2022/07/13 09:03:47;;;;;;;0.75;0.70;;;27.30;60.60;;;;;;5050195;28;20043;-87
2022/07/13 09:06:39;;;;;;;1.48;0.50;;;27.60;59.80;;;;;;5053450;28;20028;-88
2022/07/13 09:09:23;;;;;;;0.50;0.50;;;27.80;59.10;;;;;;5044028;28;20052;-88
2022/07/13 09:11:49;;;;;;;1.45;0.73;;;28.00;60.90;;;;;;5053788;28;20044;-87
2022/07/13 09:14:25;;;;;;;0.70;0.70;;;28.10;61.90;;;;;;5050535;28;20086;-88
2022/07/13 09:16:52;;;;;;;0.55;0.55;;;28.20;62.70;;;;;;5035192;28;20108;-88
2022/07/13 09:19:18;;;;;;;1.52;0.70;;;28.10;56.50;;;;;;5038976;28;20033;-87
2022/07/13 09:21:44;;;;;;;0.63;0.63;;;28.00;55.50;;;;;;5021052;28;20048;-88
2022/07/13 09:24:10;;;;;;;2.00;1.27;;;28.00;57.40;;;;;;5018190;28;20653;-87
2022/07/13 09:26:46;;;;;;;1.20;0.50;;;28.00;59.70;;;;;;5020185;28;20047;-87
2022/07/13 09:29:13;;;;;;;0.63;0.57;;;28.00;56.10;;;;;;5036097;28;20183;-87
2022/07/13 09:31:56;;;;;;;1.10;0.68;;;28.00;57.10;;;;;;5037201;28;20032;-87
2022/07/13 09:34:42;;;;;;;0.70;0.70;;;28.00;61.30;;;;;;5019057;28;20029;-87
2022/07/13 09:37:09;;;;;;;1.13;0.65;;;28.10;59.20;;;;;;5047682;28;20503;-87
2022/07/13 09:39:54;;;;;;;1.95;0.60;;;28.20;52.70;;;;;;5036452;28;20040;-88
2022/07/13 09:42:31;;;;;;;0.83;0.63;;;28.20;55.80;;;;;;5039017;28;20406;-88
2022/07/13 09:47:46;;;;;;;1.95;0.63;;;28.20;57.30;;;;;;5033467;28;20064;-88
2022/07/13 09:50:12;;;;;;;0.50;0.50;;;28.20;58.50;;;;;;5034677;28;20039;-88
2022/07/13 09:52:38;;;;;;;0.43;0.43;;;28.10;57.70;;;;;;5016565;28;20033;-87
2022/07/13 09:55:06;;;;;;;0.47;0.47;;;27.80;57.70;;;;;;5036711;28;20499;-86
2022/07/13 09:57:35;;;;;;;0.50;0.50;;;27.60;58.10;;;;;;5044202;28;20034;-89
2022/07/13 10:00:03;;;;;;;0.50;0.50;;;27.50;58.80;;;;;;5040924;28;20086;-88
2022/07/13 10:02:30;;;;;;;1.75;0.52;;;27.40;58.10;;;;;;5054689;28;20052;-88
2022/07/13 10:04:57;;;;;;;0.50;0.50;;;27.40;56.00;;;;;;5064862;28;20467;-88
2022/07/13 10:07:23;;;;;;;0.85;0.85;;;27.40;54.60;;;;;;5037026;28;20044;-89
2022/07/13 10:09:50;;;;;;;0.70;0.70;;;27.50;57.30;;;;;;5026570;28;20033;-88
2022/07/13 10:12:15;;;;;;;0.40;0.40;;;27.60;58.90;;;;;;5020732;28;20040;-88
2022/07/13 10:14:41;;;;;;;2.17;0.70;;;27.80;57.60;;;;;;5037078;28;20033;-88
2022/07/13 10:17:13;;;;;;;0.43;0.43;;;27.90;53.50;;;;;;5026659;28;20043;-86
2022/07/13 10:20:09;;;;;;;5.63;0.70;;;28.00;54.90;;;;;;5052745;28;20044;-88
2022/07/13 10:22:40;;;;;;;0.85;0.50;;;28.10;54.90;;;;;;5033763;28;20123;-88
2022/07/13 10:25:06;;;;;;;0.50;0.50;;;28.20;55.00;;;;;;5036957;28;20062;-87
2022/07/13 10:27:36;;;;;;;0.63;0.63;;;28.30;56.10;;;;;;5049233;28;20033;-86
2022/07/13 10:30:08;;;;;;;0.70;0.70;;;28.30;54.00;;;;;;5037736;28;20808;-88
2022/07/13 10:32:38;;;;;;;0.43;0.43;;;28.40;55.00;;;;;;5029250;28;20032;-88
2022/07/13 10:35:10;;;;;;;0.65;0.65;;;28.40;54.70;;;;;;5041067;28;20033;-87
2022/07/13 10:38:01;;;;;;;0.45;0.45;;;28.40;52.80;;;;;;5029989;28;20094;-87
2022/07/13 10:40:31;;;;;;;0.57;0.57;;;28.50;55.60;;;;;;5017423;28;20029;-90
2022/07/13 10:42:57;;;;;;;0.60;0.60;;;28.50;55.20;;;;;;5035178;28;20037;-87
2022/07/13 10:45:32;;;;;;;0.70;0.70;;;28.60;53.80;;;;;;5034850;28;20029;-89
2022/07/13 10:48:03;;;;;;;0.60;0.60;;;28.60;51.70;;;;;;5051861;28;20067;-87
2022/07/13 10:50:36;;;;;;;0.60;0.60;;;28.60;52.50;;;;;;5050922;28;20041;-89
2022/07/13 10:53:02;;;;;;;0.45;0.45;;;28.70;55.30;;;;;;5049579;28;20098;-88
2022/07/13 10:55:36;;;;;;;1.23;0.80;;;28.70;53.30;;;;;;5050687;28;20032;-89
2022/07/13 10:58:39;;;;;;;0.52;0.52;;;28.70;51.10;;;;;;5051462;28;20131;-88
2022/07/13 11:01:37;;;;;;;1.35;0.60;;;28.80;54.00;;;;;;5028719;28;20052;-87
2022/07/13 11:04:05;;;;;;;3.22;1.85;;;28.90;51.90;;;;;;5029890;28;20039;-88
2022/07/13 11:06:31;;;;;;;1.20;1.10;;;29.10;53.70;;;;;;5041267;28;20164;-87
2022/07/13 11:09:18;;;;;;;0.60;0.60;;;29.30;55.40;;;;;;5029098;28;20127;-86
2022/07/13 11:11:53;;;;;;;1.65;0.60;;;29.50;52.40;;;;;;5033590;28;20032;-87
2022/07/13 11:14:40;;;;;;;0.93;0.93;;;29.70;52.90;;;;;;5033922;28;20127;-87
2022/07/13 11:17:20;;;;;;;0.70;0.70;;;29.90;49.10;;;;;;5049088;28;20028;-87
2022/07/13 11:19:59;;;;;;;0.73;0.70;;;30.00;50.70;;;;;;5033127;28;20070;-90
2022/07/13 11:25:32;;;;;;;1.13;1.05;;;29.80;48.70;;;;;;5051741;28;20037;-88
2022/07/13 11:28:13;;;;;;;1.15;0.60;;;29.60;50.30;;;;;;5049501;28;20039;-87
2022/07/13 11:30:43;;;;;;;0.70;0.70;;;29.40;51.30;;;;;;5028990;28;20032;-87
2022/07/13 11:33:12;;;;;;;0.70;0.70;;;29.10;50.50;;;;;;5046013;28;20025;-88
2022/07/13 11:35:44;;;;;;;0.52;0.52;;;29.00;51.10;;;;;;5032450;28;20495;-87
2022/07/13 11:38:11;;;;;;;0.60;0.47;;;28.90;51.00;;;;;;5048939;28;20078;-87
2022/07/13 11:40:36;;;;;;;0.52;0.52;;;28.80;49.90;;;;;;5027624;28;20040;-87
2022/07/13 11:43:03;;;;;;;0.70;0.70;;;28.70;50.50;;;;;;5034126;28;20025;-87
2022/07/13 11:45:30;;;;;;;1.10;1.00;;;28.60;52.60;;;;;;5035349;28;20036;-88
2022/07/13 11:48:00;;;;;;;1.77;0.85;;;28.50;54.90;;;;;;5015208;28;20048;-87
2022/07/13 11:50:46;;;;;;;0.80;0.77;;;28.40;54.10;;;;;;5035735;28;20037;-88
2022/07/13 11:53:29;;;;;;;1.45;0.73;;;28.40;51.50;;;;;;5035747;28;20039;-87
2022/07/13 11:56:04;;;;;;;11.85;1.52;;;28.50;54.30;;;;;;5035510;28;20035;-86
2022/07/13 11:58:33;;;;;;;0.70;0.70;;;28.60;54.10;;;;;;5053489;28;20025;-87
2022/07/13 12:01:10;;;;;;;0.77;0.77;;;28.50;54.20;;;;;;5052384;28;20041;-87
2022/07/13 12:03:36;;;;;;;1.30;0.80;;;28.50;54.20;;;;;;5052253;28;20082;-88
2022/07/13 12:06:03;;;;;;;0.85;0.85;;;28.50;55.10;;;;;;5055380;28;20037;-89
2022/07/13 12:08:34;;;;;;;0.82;0.82;;;28.50;55.70;;;;;;5045872;28;20032;-86
2022/07/13 12:11:01;;;;;;;1.00;0.50;;;28.40;54.10;;;;;;5022439;28;20036;-87
2022/07/13 12:13:27;;;;;;;1.00;1.00;;;28.30;53.80;;;;;;5038434;28;20478;-87
2022/07/13 12:15:53;;;;;;;0.80;0.80;;;28.20;55.00;;;;;;5038799;28;20029;-87
2022/07/13 12:18:19;;;;;;;0.77;0.77;;;28.10;53.80;;;;;;5022149;28;20048;-88
2022/07/13 12:20:45;;;;;;;0.90;0.90;;;27.90;55.10;;;;;;5021801;28;20482;-87
2022/07/13 12:23:11;;;;;;;0.75;0.75;;;27.80;55.20;;;;;;5039013;28;20098;-87
2022/07/13 12:25:41;;;;;;;0.70;0.70;;;27.80;56.70;;;;;;5055216;28;20035;-87
2022/07/13 12:28:09;;;;;;;0.65;0.65;;;27.80;56.60;;;;;;5022232;28;20036;-86
2022/07/13 12:30:37;;;;;;;0.82;0.82;;;27.90;56.30;;;;;;5005635;28;20032;-87
2022/07/13 12:33:05;;;;;;;1.40;0.77;;;28.00;56.00;;;;;;5038079;28;20059;-88
2022/07/13 12:35:38;;;;;;;0.65;0.60;;;28.20;56.50;;;;;;5038180;28;20628;-86
2022/07/13 12:38:08;;;;;;;3.03;2.65;;;28.30;56.30;;;;;;5030945;28;20115;-86
2022/07/13 12:40:55;;;;;;;1.20;1.10;;;28.30;56.00;;;;;;5075816;28;20024;-86
2022/07/13 12:43:25;;;;;;;0.80;0.77;;;28.30;55.40;;;;;;5033408;28;20031;-88
2022/07/13 12:46:02;;;;;;;0.75;0.65;;;28.40;55.90;;;;;;5055007;28;20043;-87
2022/07/13 12:48:33;;;;;;;1.48;0.73;;;28.40;57.40;;;;;;5038310;28;20059;-86
2022/07/13 12:51:02;;;;;;;0.98;0.90;;;28.30;57.80;;;;;;5038451;28;20041;-86
2022/07/13 12:53:47;;;;;;;0.88;0.82;;;28.30;56.00;;;;;;5051634;28;20041;-86
2022/07/13 12:56:18;;;;;;;1.23;0.90;;;28.30;58.60;;;;;;5055249;28;20103;-87
2022/07/13 12:58:53;;;;;;;0.65;0.65;;;28.40;56.00;;;;;;5030932;28;20036;-87
2022/07/13 13:01:29;;;;;;;1.58;1.10;;;28.60;56.30;;;;;;5035382;28;20035;-86